sensor_id;sensor_type;location;lat;lon;timestamp;P1;durP1;ratioP1;P2;durP2;ratioP2
47894;SDS011;33653;52.302;8.134;2022-07-03T00:00:19;2.83;;;1.38;;
47894;SDS011;33653;52.302;8.134;2022-07-03T00:02:47;4.25;;;1.70;;
47894;SDS011;33653;52.302;8.134;2022-07-03T00:05:16;4.25;;;1.80;;
47894;SDS011;33653;52.302;8.134;2022-07-03T00:07:44;4.80;;;1.55;;
47894;SDS011;33653;52.302;8.134;2022-07-03T00:10:12;7.88;;;2.75;;
47894;SDS011;33653;52.302;8.134;2022-07-03T00:12:41;2.30;;;1.33;;
47894;SDS011;33653;52.302;8.134;2022-07-03T00:15:09;2.67;;;1.42;;
47894;SDS011;33653;52.302;8.134;2022-07-03T00:17:38;1.73;;;1.30;;
47894;SDS011;33653;52.302;8.134;2022-07-03T00:20:06;2.40;;;1.30;;
47894;SDS011;33653;52.302;8.134;2022-07-03T00:22:37;3.15;;;1.65;;
47894;SDS011;33653;52.302;8.134;2022-07-03T00:25:12;3.38;;;1.60;;
47894;SDS011;33653;52.302;8.134;2022-07-03T00:27:40;3.05;;;1.38;;
47894;SDS011;33653;52.302;8.134;2022-07-03T00:30:11;4.32;;;1.90;;
47894;SDS011;33653;52.302;8.134;2022-07-03T00:32:40;4.05;;;2.17;;
47894;SDS011;33653;52.302;8.134;2022-07-03T00:35:09;3.72;;;1.80;;
47894;SDS011;33653;52.302;8.134;2022-07-03T00:37:44;2.90;;;1.40;;
47894;SDS011;33653;52.302;8.134;2022-07-03T00:40:12;5.25;;;1.90;;
47894;SDS011;33653;52.302;8.134;2022-07-03T00:42:40;4.68;;;1.88;;
47894;SDS011;33653;52.302;8.134;2022-07-03T00:45:11;9.13;;;1.90;;
47894;SDS011;33653;52.302;8.134;2022-07-03T00:47:40;2.42;;;1.38;;
47894;SDS011;33653;52.302;8.134;2022-07-03T00:50:10;5.20;;;1.80;;
47894;SDS011;33653;52.302;8.134;2022-07-03T00:52:38;1.92;;;1.25;;
47894;SDS011;33653;52.302;8.134;2022-07-03T00:55:14;4.15;;;1.60;;
47894;SDS011;33653;52.302;8.134;2022-07-03T00:57:44;4.57;;;1.90;;
47894;SDS011;33653;52.302;8.134;2022-07-03T01:00:15;5.65;;;2.22;;
47894;SDS011;33653;52.302;8.134;2022-07-03T01:10:54;3.13;;;1.60;;
47894;SDS011;33653;52.302;8.134;2022-07-03T01:17:06;1.52;;;1.42;;
47894;SDS011;33653;52.302;8.134;2022-07-03T01:19:48;1.60;;;1.50;;
47894;SDS011;33653;52.302;8.134;2022-07-03T01:27:55;5.00;;;1.92;;
47894;SDS011;33653;52.302;8.134;2022-07-03T01:30:28;1.90;;;1.50;;
47894;SDS011;33653;52.302;8.134;2022-07-03T01:33:06;1.90;;;1.60;;
47894;SDS011;33653;52.302;8.134;2022-07-03T01:36:07;1.98;;;1.50;;
47894;SDS011;33653;52.302;8.134;2022-07-03T01:38:38;1.58;;;1.48;;
47894;SDS011;33653;52.302;8.134;2022-07-03T01:41:08;1.73;;;1.50;;
47894;SDS011;33653;52.302;8.134;2022-07-03T01:46:17;1.98;;;1.48;;
47894;SDS011;33653;52.302;8.134;2022-07-03T01:48:46;1.50;;;1.40;;
47894;SDS011;33653;52.302;8.134;2022-07-03T01:51:15;1.50;;;1.40;;
47894;SDS011;33653;52.302;8.134;2022-07-03T01:53:45;1.70;;;1.60;;
47894;SDS011;33653;52.302;8.134;2022-07-03T01:56:17;1.50;;;1.30;;
47894;SDS011;33653;52.302;8.134;2022-07-03T01:58:47;3.00;;;1.70;;
47894;SDS011;33653;52.302;8.134;2022-07-03T02:09:33;1.20;;;1.10;;
47894;SDS011;33653;52.302;8.134;2022-07-03T02:12:18;1.65;;;1.20;;
47894;SDS011;33653;52.302;8.134;2022-07-03T02:14:53;2.65;;;1.70;;
47894;SDS011;33653;52.302;8.134;2022-07-03T02:17:36;1.50;;;1.40;;
47894;SDS011;33653;52.302;8.134;2022-07-03T02:20:15;3.88;;;1.73;;
47894;SDS011;33653;52.302;8.134;2022-07-03T02:22:45;6.80;;;1.90;;
47894;SDS011;33653;52.302;8.134;2022-07-03T02:25:22;4.45;;;1.75;;
47894;SDS011;33653;52.302;8.134;2022-07-03T02:28:04;2.22;;;1.30;;
47894;SDS011;33653;52.302;8.134;2022-07-03T02:30:42;1.75;;;1.42;;
47894;SDS011;33653;52.302;8.134;2022-07-03T02:33:11;3.92;;;1.45;;
47894;SDS011;33653;52.302;8.134;2022-07-03T02:35:47;2.67;;;1.40;;
47894;SDS011;33653;52.302;8.134;2022-07-03T02:38:17;2.35;;;1.58;;
47894;SDS011;33653;52.302;8.134;2022-07-03T02:43:44;1.70;;;1.60;;
47894;SDS011;33653;52.302;8.134;2022-07-03T02:46:54;1.65;;;1.20;;
47894;SDS011;33653;52.302;8.134;2022-07-03T02:52:52;3.88;;;1.70;;
47894;SDS011;33653;52.302;8.134;2022-07-03T02:55:39;1.77;;;1.45;;
47894;SDS011;33653;52.302;8.134;2022-07-03T03:07:16;2.08;;;1.67;;
47894;SDS011;33653;52.302;8.134;2022-07-03T03:09:46;1.42;;;1.30;;
47894;SDS011;33653;52.302;8.134;2022-07-03T03:12:17;1.27;;;1.17;;
47894;SDS011;33653;52.302;8.134;2022-07-03T03:15:00;1.60;;;1.50;;
47894;SDS011;33653;52.302;8.134;2022-07-03T03:17:50;1.55;;;1.45;;
47894;SDS011;33653;52.302;8.134;2022-07-03T03:20:21;5.05;;;1.98;;
47894;SDS011;33653;52.302;8.134;2022-07-03T03:25:59;1.75;;;1.33;;
47894;SDS011;33653;52.302;8.134;2022-07-03T03:28:28;4.40;;;1.70;;
47894;SDS011;33653;52.302;8.134;2022-07-03T03:30:57;2.78;;;1.48;;
47894;SDS011;33653;52.302;8.134;2022-07-03T03:33:25;1.50;;;1.40;;
47894;SDS011;33653;52.302;8.134;2022-07-03T03:35:54;1.40;;;1.30;;
47894;SDS011;33653;52.302;8.134;2022-07-03T03:38:22;1.95;;;1.75;;
47894;SDS011;33653;52.302;8.134;2022-07-03T03:40:50;1.30;;;1.20;;
47894;SDS011;33653;52.302;8.134;2022-07-03T03:43:19;1.58;;;1.48;;
47894;SDS011;33653;52.302;8.134;2022-07-03T03:45:47;3.40;;;1.45;;
47894;SDS011;33653;52.302;8.134;2022-07-03T03:48:16;7.18;;;1.85;;
47894;SDS011;33653;52.302;8.134;2022-07-03T03:50:44;2.72;;;1.67;;
47894;SDS011;33653;52.302;8.134;2022-07-03T03:53:13;1.63;;;1.40;;
47894;SDS011;33653;52.302;8.134;2022-07-03T03:58:42;1.50;;;1.40;;
47894;SDS011;33653;52.302;8.134;2022-07-03T04:01:11;2.10;;;1.67;;
47894;SDS011;33653;52.302;8.134;2022-07-03T04:03:40;2.13;;;1.80;;
47894;SDS011;33653;52.302;8.134;2022-07-03T04:06:08;2.05;;;1.83;;
47894;SDS011;33653;52.302;8.134;2022-07-03T04:08:37;1.75;;;1.65;;
47894;SDS011;33653;52.302;8.134;2022-07-03T04:11:05;2.33;;;1.80;;
47894;SDS011;33653;52.302;8.134;2022-07-03T04:13:34;6.13;;;1.70;;
47894;SDS011;33653;52.302;8.134;2022-07-03T04:16:02;4.40;;;2.03;;
47894;SDS011;33653;52.302;8.134;2022-07-03T04:18:31;1.73;;;1.63;;
47894;SDS011;33653;52.302;8.134;2022-07-03T04:20:59;1.63;;;1.42;;
47894;SDS011;33653;52.302;8.134;2022-07-03T04:23:28;2.00;;;1.80;;
47894;SDS011;33653;52.302;8.134;2022-07-03T04:26:06;1.63;;;1.52;;
47894;SDS011;33653;52.302;8.134;2022-07-03T04:28:41;3.53;;;1.77;;
47894;SDS011;33653;52.302;8.134;2022-07-03T04:31:10;2.97;;;1.65;;
47894;SDS011;33653;52.302;8.134;2022-07-03T04:33:38;3.42;;;2.05;;
47894;SDS011;33653;52.302;8.134;2022-07-03T04:36:13;2.15;;;1.60;;
47894;SDS011;33653;52.302;8.134;2022-07-03T04:38:42;2.20;;;2.00;;
47894;SDS011;33653;52.302;8.134;2022-07-03T04:41:11;1.63;;;1.48;;
47894;SDS011;33653;52.302;8.134;2022-07-03T04:43:39;2.50;;;2.13;;
47894;SDS011;33653;52.302;8.134;2022-07-03T04:46:07;4.25;;;2.17;;
47894;SDS011;33653;52.302;8.134;2022-07-03T04:48:36;3.33;;;2.17;;
47894;SDS011;33653;52.302;8.134;2022-07-03T04:51:04;2.33;;;1.83;;
47894;SDS011;33653;52.302;8.134;2022-07-03T04:53:32;2.20;;;2.00;;
47894;SDS011;33653;52.302;8.134;2022-07-03T04:56:01;1.92;;;1.73;;
47894;SDS011;33653;52.302;8.134;2022-07-03T04:58:29;1.83;;;1.70;;
47894;SDS011;33653;52.302;8.134;2022-07-03T05:00:58;2.60;;;1.92;;
47894;SDS011;33653;52.302;8.134;2022-07-03T05:03:26;2.25;;;1.70;;
47894;SDS011;33653;52.302;8.134;2022-07-03T05:05:55;2.47;;;2.00;;
47894;SDS011;33653;52.302;8.134;2022-07-03T05:08:25;2.00;;;1.73;;
47894;SDS011;33653;52.302;8.134;2022-07-03T05:10:53;1.85;;;1.70;;
47894;SDS011;33653;52.302;8.134;2022-07-03T05:13:22;4.55;;;2.13;;
47894;SDS011;33653;52.302;8.134;2022-07-03T05:15:51;2.15;;;1.95;;
47894;SDS011;33653;52.302;8.134;2022-07-03T05:18:19;4.15;;;2.13;;
47894;SDS011;33653;52.302;8.134;2022-07-03T05:20:48;2.92;;;1.88;;
47894;SDS011;33653;52.302;8.134;2022-07-03T05:23:16;2.30;;;1.90;;
47894;SDS011;33653;52.302;8.134;2022-07-03T05:25:44;2.40;;;2.08;;
47894;SDS011;33653;52.302;8.134;2022-07-03T05:28:13;5.07;;;2.00;;
47894;SDS011;33653;52.302;8.134;2022-07-03T05:30:41;2.55;;;2.05;;
47894;SDS011;33653;52.302;8.134;2022-07-03T05:33:09;5.20;;;2.10;;
47894;SDS011;33653;52.302;8.134;2022-07-03T05:35:38;2.60;;;2.10;;
47894;SDS011;33653;52.302;8.134;2022-07-03T05:38:06;3.35;;;2.45;;
47894;SDS011;33653;52.302;8.134;2022-07-03T05:40:34;2.63;;;2.08;;
47894;SDS011;33653;52.302;8.134;2022-07-03T05:43:02;2.55;;;2.17;;
47894;SDS011;33653;52.302;8.134;2022-07-03T05:45:31;3.85;;;2.00;;
47894;SDS011;33653;52.302;8.134;2022-07-03T05:47:59;3.58;;;2.10;;
47894;SDS011;33653;52.302;8.134;2022-07-03T05:50:29;3.33;;;2.00;;
47894;SDS011;33653;52.302;8.134;2022-07-03T05:52:57;2.33;;;2.10;;
47894;SDS011;33653;52.302;8.134;2022-07-03T05:55:25;6.88;;;2.47;;
47894;SDS011;33653;52.302;8.134;2022-07-03T05:57:54;4.63;;;2.30;;
47894;SDS011;33653;52.302;8.134;2022-07-03T06:00:22;4.57;;;2.33;;
47894;SDS011;33653;52.302;8.134;2022-07-03T06:02:50;4.47;;;2.53;;
47894;SDS011;33653;52.302;8.134;2022-07-03T06:05:18;6.88;;;2.45;;
47894;SDS011;33653;52.302;8.134;2022-07-03T06:07:47;6.05;;;2.75;;
47894;SDS011;33653;52.302;8.134;2022-07-03T06:10:16;4.75;;;2.30;;
47894;SDS011;33653;52.302;8.134;2022-07-03T06:12:44;6.13;;;3.10;;
47894;SDS011;33653;52.302;8.134;2022-07-03T06:15:13;3.67;;;2.78;;
47894;SDS011;33653;52.302;8.134;2022-07-03T06:17:41;4.35;;;2.92;;
47894;SDS011;33653;52.302;8.134;2022-07-03T06:20:11;5.22;;;2.88;;
47894;SDS011;33653;52.302;8.134;2022-07-03T06:22:40;3.78;;;2.50;;
47894;SDS011;33653;52.302;8.134;2022-07-03T06:25:08;4.85;;;2.72;;
47894;SDS011;33653;52.302;8.134;2022-07-03T06:27:37;3.72;;;2.50;;
47894;SDS011;33653;52.302;8.134;2022-07-03T06:30:06;3.50;;;2.33;;
47894;SDS011;33653;52.302;8.134;2022-07-03T06:32:35;3.13;;;2.25;;
47894;SDS011;33653;52.302;8.134;2022-07-03T06:35:03;2.10;;;1.90;;
47894;SDS011;33653;52.302;8.134;2022-07-03T06:37:32;3.60;;;2.15;;
47894;SDS011;33653;52.302;8.134;2022-07-03T06:40:00;3.15;;;1.92;;
47894;SDS011;33653;52.302;8.134;2022-07-03T06:42:29;5.30;;;1.90;;
47894;SDS011;33653;52.302;8.134;2022-07-03T06:44:57;2.45;;;1.90;;
47894;SDS011;33653;52.302;8.134;2022-07-03T06:47:27;2.30;;;1.73;;
47894;SDS011;33653;52.302;8.134;2022-07-03T06:49:55;2.00;;;1.80;;
47894;SDS011;33653;52.302;8.134;2022-07-03T06:52:23;1.73;;;1.33;;
47894;SDS011;33653;52.302;8.134;2022-07-03T06:54:52;1.75;;;1.50;;
47894;SDS011;33653;52.302;8.134;2022-07-03T06:57:21;1.38;;;1.27;;
47894;SDS011;33653;52.302;8.134;2022-07-03T06:59:49;2.83;;;1.40;;
47894;SDS011;33653;52.302;8.134;2022-07-03T07:02:17;1.67;;;1.25;;
47894;SDS011;33653;52.302;8.134;2022-07-03T07:04:46;2.42;;;1.30;;
47894;SDS011;33653;52.302;8.134;2022-07-03T07:07:14;1.58;;;1.30;;
47894;SDS011;33653;52.302;8.134;2022-07-03T07:09:43;1.90;;;1.30;;
47894;SDS011;33653;52.302;8.134;2022-07-03T07:12:12;1.67;;;1.50;;
47894;SDS011;33653;52.302;8.134;2022-07-03T07:14:41;1.33;;;1.10;;
47894;SDS011;33653;52.302;8.134;2022-07-03T07:17:09;1.23;;;1.13;;
47894;SDS011;33653;52.302;8.134;2022-07-03T07:19:38;1.75;;;1.15;;
47894;SDS011;33653;52.302;8.134;2022-07-03T07:22:06;2.45;;;1.40;;
47894;SDS011;33653;52.302;8.134;2022-07-03T07:24:35;2.30;;;1.77;;
47894;SDS011;33653;52.302;8.134;2022-07-03T07:27:04;1.48;;;1.10;;
47894;SDS011;33653;52.302;8.134;2022-07-03T07:29:32;1.35;;;1.23;;
47894;SDS011;33653;52.302;8.134;2022-07-03T07:32:02;9.93;;;1.33;;
47894;SDS011;33653;52.302;8.134;2022-07-03T07:34:31;1.75;;;1.00;;
47894;SDS011;33653;52.302;8.134;2022-07-03T07:37:00;1.27;;;0.90;;
47894;SDS011;33653;52.302;8.134;2022-07-03T07:39:28;2.80;;;0.90;;
47894;SDS011;33653;52.302;8.134;2022-07-03T07:41:57;0.95;;;0.88;;
47894;SDS011;33653;52.302;8.134;2022-07-03T07:44:26;0.90;;;0.90;;
47894;SDS011;33653;52.302;8.134;2022-07-03T07:46:54;1.33;;;0.90;;
47894;SDS011;33653;52.302;8.134;2022-07-03T07:49:23;3.92;;;0.90;;
47894;SDS011;33653;52.302;8.134;2022-07-03T07:51:51;0.80;;;0.80;;
47894;SDS011;33653;52.302;8.134;2022-07-03T07:54:20;1.55;;;0.90;;
47894;SDS011;33653;52.302;8.134;2022-07-03T07:56:49;1.15;;;0.85;;
47894;SDS011;33653;52.302;8.134;2022-07-03T07:59:18;0.80;;;0.80;;
47894;SDS011;33653;52.302;8.134;2022-07-03T08:01:46;2.10;;;0.65;;
47894;SDS011;33653;52.302;8.134;2022-07-03T08:04:33;0.82;;;0.80;;
47894;SDS011;33653;52.302;8.134;2022-07-03T08:07:19;0.70;;;0.70;;
47894;SDS011;33653;52.302;8.134;2022-07-03T08:09:48;1.45;;;0.65;;
47894;SDS011;33653;52.302;8.134;2022-07-03T08:12:21;0.65;;;0.65;;
47894;SDS011;33653;52.302;8.134;2022-07-03T08:14:49;2.15;;;0.73;;
47894;SDS011;33653;52.302;8.134;2022-07-03T08:17:17;3.47;;;1.63;;
47894;SDS011;33653;52.302;8.134;2022-07-03T08:19:46;0.47;;;0.47;;
47894;SDS011;33653;52.302;8.134;2022-07-03T08:22:14;0.80;;;0.80;;
47894;SDS011;33653;52.302;8.134;2022-07-03T08:24:43;1.13;;;0.80;;
47894;SDS011;33653;52.302;8.134;2022-07-03T08:27:11;1.10;;;0.95;;
47894;SDS011;33653;52.302;8.134;2022-07-03T08:29:40;1.58;;;0.80;;
47894;SDS011;33653;52.302;8.134;2022-07-03T08:32:08;0.93;;;0.80;;
47894;SDS011;33653;52.302;8.134;2022-07-03T08:34:37;1.00;;;0.55;;
47894;SDS011;33653;52.302;8.134;2022-07-03T08:37:05;2.08;;;1.02;;
47894;SDS011;33653;52.302;8.134;2022-07-03T08:39:33;0.95;;;0.80;;
47894;SDS011;33653;52.302;8.134;2022-07-03T08:42:02;0.70;;;0.70;;
47894;SDS011;33653;52.302;8.134;2022-07-03T08:44:32;1.73;;;0.60;;
47894;SDS011;33653;52.302;8.134;2022-07-03T08:47:04;0.93;;;0.70;;
47894;SDS011;33653;52.302;8.134;2022-07-03T08:49:37;1.48;;;0.70;;
47894;SDS011;33653;52.302;8.134;2022-07-03T08:52:06;3.75;;;1.00;;
47894;SDS011;33653;52.302;8.134;2022-07-03T08:54:37;0.80;;;0.80;;
47894;SDS011;33653;52.302;8.134;2022-07-03T08:57:07;0.65;;;0.63;;
47894;SDS011;33653;52.302;8.134;2022-07-03T08:59:38;1.92;;;0.80;;
47894;SDS011;33653;52.302;8.134;2022-07-03T09:02:07;0.55;;;0.55;;
47894;SDS011;33653;52.302;8.134;2022-07-03T09:04:35;1.80;;;0.60;;
47894;SDS011;33653;52.302;8.134;2022-07-03T09:07:04;4.10;;;0.70;;
47894;SDS011;33653;52.302;8.134;2022-07-03T09:09:35;2.55;;;0.80;;
47894;SDS011;33653;52.302;8.134;2022-07-03T09:12:04;0.75;;;0.55;;
47894;SDS011;33653;52.302;8.134;2022-07-03T09:14:34;1.20;;;0.95;;
47894;SDS011;33653;52.302;8.134;2022-07-03T09:17:05;2.00;;;0.80;;
47894;SDS011;33653;52.302;8.134;2022-07-03T09:22:20;1.10;;;0.70;;
47894;SDS011;33653;52.302;8.134;2022-07-03T09:24:54;1.38;;;0.63;;
47894;SDS011;33653;52.302;8.134;2022-07-03T09:27:34;1.55;;;0.57;;
47894;SDS011;33653;52.302;8.134;2022-07-03T09:30:06;1.90;;;0.63;;
47894;SDS011;33653;52.302;8.134;2022-07-03T09:37:58;0.75;;;0.52;;
47894;SDS011;33653;52.302;8.134;2022-07-03T09:40:55;0.32;;;0.30;;
47894;SDS011;33653;52.302;8.134;2022-07-03T09:43:27;0.50;;;0.50;;
47894;SDS011;33653;52.302;8.134;2022-07-03T09:46:02;0.85;;;0.73;;
47894;SDS011;33653;52.302;8.134;2022-07-03T09:48:40;1.13;;;0.73;;
47894;SDS011;33653;52.302;8.134;2022-07-03T09:51:16;0.60;;;0.60;;
47894;SDS011;33653;52.302;8.134;2022-07-03T09:53:51;1.65;;;0.70;;
47894;SDS011;33653;52.302;8.134;2022-07-03T09:59:12;0.75;;;0.60;;
47894;SDS011;33653;52.302;8.134;2022-07-03T10:01:42;1.27;;;0.60;;
47894;SDS011;33653;52.302;8.134;2022-07-03T10:04:18;1.13;;;0.70;;
47894;SDS011;33653;52.302;8.134;2022-07-03T10:06:50;1.00;;;0.90;;
47894;SDS011;33653;52.302;8.134;2022-07-03T10:09:22;2.22;;;0.70;;
47894;SDS011;33653;52.302;8.134;2022-07-03T10:11:59;1.58;;;0.63;;
47894;SDS011;33653;52.302;8.134;2022-07-03T10:14:29;1.08;;;0.63;;
47894;SDS011;33653;52.302;8.134;2022-07-03T10:16:59;1.52;;;0.40;;
47894;SDS011;33653;52.302;8.134;2022-07-03T10:19:32;0.60;;;0.60;;
47894;SDS011;33653;52.302;8.134;2022-07-03T10:22:08;0.95;;;0.82;;
47894;SDS011;33653;52.302;8.134;2022-07-03T10:24:47;0.90;;;0.80;;
47894;SDS011;33653;52.302;8.134;2022-07-03T10:27:16;1.15;;;0.70;;
47894;SDS011;33653;52.302;8.134;2022-07-03T10:29:47;1.40;;;0.82;;
47894;SDS011;33653;52.302;8.134;2022-07-03T10:32:16;1.33;;;0.73;;
47894;SDS011;33653;52.302;8.134;2022-07-03T10:34:45;2.30;;;0.75;;
47894;SDS011;33653;52.302;8.134;2022-07-03T10:37:14;1.25;;;0.98;;
47894;SDS011;33653;52.302;8.134;2022-07-03T10:42:48;4.75;;;1.35;;
47894;SDS011;33653;52.302;8.134;2022-07-03T11:31:33;1.90;;;0.60;;
47894;SDS011;33653;52.302;8.134;2022-07-03T11:34:01;1.70;;;0.65;;
47894;SDS011;33653;52.302;8.134;2022-07-03T11:36:31;0.57;;;0.40;;
47894;SDS011;33653;52.302;8.134;2022-07-03T11:44:06;0.60;;;0.60;;
47894;SDS011;33653;52.302;8.134;2022-07-03T11:46:39;0.60;;;0.60;;
47894;SDS011;33653;52.302;8.134;2022-07-03T11:49:08;1.00;;;0.70;;
47894;SDS011;33653;52.302;8.134;2022-07-03T11:51:41;0.45;;;0.45;;
47894;SDS011;33653;52.302;8.134;2022-07-03T11:54:23;2.00;;;0.70;;
47894;SDS011;33653;52.302;8.134;2022-07-03T11:56:54;0.50;;;0.50;;
47894;SDS011;33653;52.302;8.134;2022-07-03T11:59:22;0.95;;;0.63;;
47894;SDS011;33653;52.302;8.134;2022-07-03T12:01:51;3.15;;;1.10;;
47894;SDS011;33653;52.302;8.134;2022-07-03T12:04:20;2.53;;;0.93;;
47894;SDS011;33653;52.302;8.134;2022-07-03T12:06:52;2.60;;;0.90;;
47894;SDS011;33653;52.302;8.134;2022-07-03T12:09:26;1.77;;;0.77;;
47894;SDS011;33653;52.302;8.134;2022-07-03T12:12:03;1.85;;;1.10;;
47894;SDS011;33653;52.302;8.134;2022-07-03T12:14:34;3.70;;;1.02;;
47894;SDS011;33653;52.302;8.134;2022-07-03T12:17:07;1.48;;;0.98;;
47894;SDS011;33653;52.302;8.134;2022-07-03T12:19:45;3.20;;;1.08;;
47894;SDS011;33653;52.302;8.134;2022-07-03T12:22:32;1.92;;;1.10;;
47894;SDS011;33653;52.302;8.134;2022-07-03T12:25:10;2.72;;;1.25;;
47894;SDS011;33653;52.302;8.134;2022-07-03T12:27:41;3.65;;;1.50;;
47894;SDS011;33653;52.302;8.134;2022-07-03T12:30:13;3.40;;;1.27;;
47894;SDS011;33653;52.302;8.134;2022-07-03T12:32:54;2.78;;;1.30;;
47894;SDS011;33653;52.302;8.134;2022-07-03T12:35:24;2.42;;;1.20;;
47894;SDS011;33653;52.302;8.134;2022-07-03T12:37:54;3.25;;;1.10;;
47894;SDS011;33653;52.302;8.134;2022-07-03T12:40:22;2.05;;;0.90;;
47894;SDS011;33653;52.302;8.134;2022-07-03T12:42:52;2.05;;;1.08;;
47894;SDS011;33653;52.302;8.134;2022-07-03T12:45:26;2.15;;;0.90;;
47894;SDS011;33653;52.302;8.134;2022-07-03T12:50:43;1.35;;;0.98;;
47894;SDS011;33653;52.302;8.134;2022-07-03T12:53:25;1.38;;;0.90;;
47894;SDS011;33653;52.302;8.134;2022-07-03T12:55:59;1.27;;;1.00;;
47894;SDS011;33653;52.302;8.134;2022-07-03T12:58:30;2.38;;;1.50;;
47894;SDS011;33653;52.302;8.134;2022-07-03T13:01:25;3.35;;;1.83;;
47894;SDS011;33653;52.302;8.134;2022-07-03T13:04:06;1.92;;;1.45;;
47894;SDS011;33653;52.302;8.134;2022-07-03T13:06:35;3.78;;;1.67;;
47894;SDS011;33653;52.302;8.134;2022-07-03T13:09:04;2.05;;;1.73;;
47894;SDS011;33653;52.302;8.134;2022-07-03T13:11:40;1.98;;;1.27;;
47894;SDS011;33653;52.302;8.134;2022-07-03T13:16:44;2.58;;;1.23;;
47894;SDS011;33653;52.302;8.134;2022-07-03T13:19:16;3.05;;;1.05;;
47894;SDS011;33653;52.302;8.134;2022-07-03T13:21:52;1.73;;;1.10;;
47894;SDS011;33653;52.302;8.134;2022-07-03T13:24:23;2.35;;;1.10;;
47894;SDS011;33653;52.302;8.134;2022-07-03T13:26:52;1.10;;;0.80;;
47894;SDS011;33653;52.302;8.134;2022-07-03T13:29:22;0.90;;;0.90;;
47894;SDS011;33653;52.302;8.134;2022-07-03T13:31:52;2.22;;;0.93;;
47894;SDS011;33653;52.302;8.134;2022-07-03T13:34:21;1.00;;;0.95;;
47894;SDS011;33653;52.302;8.134;2022-07-03T13:36:50;1.45;;;0.95;;
47894;SDS011;33653;52.302;8.134;2022-07-03T13:39:18;1.85;;;1.27;;
47894;SDS011;33653;52.302;8.134;2022-07-03T13:41:46;2.20;;;1.00;;
47894;SDS011;33653;52.302;8.134;2022-07-03T13:44:15;2.30;;;0.93;;
47894;SDS011;33653;52.302;8.134;2022-07-03T13:46:43;2.25;;;1.05;;
47894;SDS011;33653;52.302;8.134;2022-07-03T13:49:17;1.85;;;1.08;;
47894;SDS011;33653;52.302;8.134;2022-07-03T13:51:46;1.95;;;1.00;;
47894;SDS011;33653;52.302;8.134;2022-07-03T13:54:15;1.75;;;0.82;;
47894;SDS011;33653;52.302;8.134;2022-07-03T13:56:43;0.82;;;0.75;;
47894;SDS011;33653;52.302;8.134;2022-07-03T13:59:11;0.88;;;0.88;;
47894;SDS011;33653;52.302;8.134;2022-07-03T14:01:40;2.60;;;0.75;;
47894;SDS011;33653;52.302;8.134;2022-07-03T14:04:08;22.67;;;9.23;;
47894;SDS011;33653;52.302;8.134;2022-07-03T14:06:37;5.40;;;1.20;;
47894;SDS011;33653;52.302;8.134;2022-07-03T14:09:05;1.92;;;1.13;;
47894;SDS011;33653;52.302;8.134;2022-07-03T14:11:34;2.63;;;1.27;;
47894;SDS011;33653;52.302;8.134;2022-07-03T14:14:02;0.80;;;0.80;;
47894;SDS011;33653;52.302;8.134;2022-07-03T14:16:30;1.05;;;0.70;;
47894;SDS011;33653;52.302;8.134;2022-07-03T14:18:59;1.02;;;0.90;;
47894;SDS011;33653;52.302;8.134;2022-07-03T14:21:30;3.20;;;1.30;;
47894;SDS011;33653;52.302;8.134;2022-07-03T14:23:59;1.77;;;1.00;;
47894;SDS011;33653;52.302;8.134;2022-07-03T14:26:27;2.47;;;1.00;;
47894;SDS011;33653;52.302;8.134;2022-07-03T14:29:14;1.00;;;0.68;;
47894;SDS011;33653;52.302;8.134;2022-07-03T14:32:01;0.95;;;0.70;;
47894;SDS011;33653;52.302;8.134;2022-07-03T14:34:48;1.63;;;1.52;;
47894;SDS011;33653;52.302;8.134;2022-07-03T14:37:18;5.53;;;2.25;;
47894;SDS011;33653;52.302;8.134;2022-07-03T14:39:49;1.77;;;0.70;;
47894;SDS011;33653;52.302;8.134;2022-07-03T14:42:18;15.38;;;9.02;;
47894;SDS011;33653;52.302;8.134;2022-07-03T14:44:47;16.77;;;11.13;;
47894;SDS011;33653;52.302;8.134;2022-07-03T14:47:15;12.57;;;7.53;;
47894;SDS011;33653;52.302;8.134;2022-07-03T14:49:45;6.05;;;3.17;;
47894;SDS011;33653;52.302;8.134;2022-07-03T14:52:13;14.15;;;8.65;;
47894;SDS011;33653;52.302;8.134;2022-07-03T14:54:44;4.75;;;2.90;;
47894;SDS011;33653;52.302;8.134;2022-07-03T15:00:03;24.10;;;14.43;;
47894;SDS011;33653;52.302;8.134;2022-07-03T15:05:16;58.35;;;31.85;;
47894;SDS011;33653;52.302;8.134;2022-07-03T15:11:01;44.03;;;24.52;;
47894;SDS011;33653;52.302;8.134;2022-07-03T15:13:34;31.30;;;16.02;;
47894;SDS011;33653;52.302;8.134;2022-07-03T15:16:03;37.55;;;23.13;;
47894;SDS011;33653;52.302;8.134;2022-07-03T15:18:32;7.95;;;5.28;;
47894;SDS011;33653;52.302;8.134;2022-07-03T15:21:01;53.42;;;29.98;;
47894;SDS011;33653;52.302;8.134;2022-07-03T15:23:34;25.77;;;17.17;;
47894;SDS011;33653;52.302;8.134;2022-07-03T15:26:03;20.67;;;13.82;;
47894;SDS011;33653;52.302;8.134;2022-07-03T15:28:31;4.32;;;3.40;;
47894;SDS011;33653;52.302;8.134;2022-07-03T15:31:01;2.50;;;1.83;;
47894;SDS011;33653;52.302;8.134;2022-07-03T15:33:30;9.48;;;5.97;;
47894;SDS011;33653;52.302;8.134;2022-07-03T15:36:00;2.53;;;1.20;;
47894;SDS011;33653;52.302;8.134;2022-07-03T15:38:35;2.25;;;1.00;;
47894;SDS011;33653;52.302;8.134;2022-07-03T15:41:12;3.97;;;0.77;;
47894;SDS011;33653;52.302;8.134;2022-07-03T15:43:59;0.93;;;0.70;;
47894;SDS011;33653;52.302;8.134;2022-07-03T15:46:51;1.92;;;0.77;;
47894;SDS011;33653;52.302;8.134;2022-07-03T15:49:50;2.60;;;1.25;;
47894;SDS011;33653;52.302;8.134;2022-07-03T15:52:28;2.13;;;1.92;;
47894;SDS011;33653;52.302;8.134;2022-07-03T15:54:58;2.33;;;0.88;;
47894;SDS011;33653;52.302;8.134;2022-07-03T16:00:22;4.82;;;2.13;;
47894;SDS011;33653;52.302;8.134;2022-07-03T16:02:56;3.92;;;1.50;;
47894;SDS011;33653;52.302;8.134;2022-07-03T16:05:55;1.95;;;0.80;;
47894;SDS011;33653;52.302;8.134;2022-07-03T16:08:24;0.70;;;0.67;;
47894;SDS011;33653;52.302;8.134;2022-07-03T16:10:54;0.50;;;0.47;;
47894;SDS011;33653;52.302;8.134;2022-07-03T16:13:24;1.40;;;0.63;;
47894;SDS011;33653;52.302;8.134;2022-07-03T16:15:56;1.27;;;0.70;;
47894;SDS011;33653;52.302;8.134;2022-07-03T16:18:26;0.65;;;0.52;;
47894;SDS011;33653;52.302;8.134;2022-07-03T16:20:56;0.95;;;0.50;;
47894;SDS011;33653;52.302;8.134;2022-07-03T16:23:24;0.55;;;0.50;;
47894;SDS011;33653;52.302;8.134;2022-07-03T16:28:23;0.68;;;0.63;;
47894;SDS011;33653;52.302;8.134;2022-07-03T16:30:55;1.02;;;0.52;;
47894;SDS011;33653;52.302;8.134;2022-07-03T16:33:26;1.60;;;0.55;;
47894;SDS011;33653;52.302;8.134;2022-07-03T16:36:19;5.53;;;3.85;;
47894;SDS011;33653;52.302;8.134;2022-07-03T16:38:52;5.15;;;2.20;;
47894;SDS011;33653;52.302;8.134;2022-07-03T16:41:40;1.20;;;0.70;;
47894;SDS011;33653;52.302;8.134;2022-07-03T16:44:09;3.33;;;1.25;;
47894;SDS011;33653;52.302;8.134;2022-07-03T16:49:11;0.90;;;0.90;;
47894;SDS011;33653;52.302;8.134;2022-07-03T16:51:42;1.70;;;0.90;;
47894;SDS011;33653;52.302;8.134;2022-07-03T16:54:12;2.38;;;2.13;;
47894;SDS011;33653;52.302;8.134;2022-07-03T16:56:43;1.58;;;1.33;;
47894;SDS011;33653;52.302;8.134;2022-07-03T16:59:12;2.83;;;1.02;;
47894;SDS011;33653;52.302;8.134;2022-07-03T17:01:41;0.88;;;0.88;;
47894;SDS011;33653;52.302;8.134;2022-07-03T17:04:09;1.08;;;0.90;;
47894;SDS011;33653;52.302;8.134;2022-07-03T17:06:38;1.88;;;1.40;;
47894;SDS011;33653;52.302;8.134;2022-07-03T17:09:06;0.68;;;0.68;;
47894;SDS011;33653;52.302;8.134;2022-07-03T17:11:41;1.40;;;0.55;;
47894;SDS011;33653;52.302;8.134;2022-07-03T17:14:10;0.75;;;0.65;;
47894;SDS011;33653;52.302;8.134;2022-07-03T17:16:43;1.95;;;0.93;;
47894;SDS011;33653;52.302;8.134;2022-07-03T17:19:22;2.55;;;0.98;;
47894;SDS011;33653;52.302;8.134;2022-07-03T17:21:53;0.93;;;0.88;;
47894;SDS011;33653;52.302;8.134;2022-07-03T17:24:43;1.52;;;0.90;;
47894;SDS011;33653;52.302;8.134;2022-07-03T17:27:16;0.73;;;0.73;;
47894;SDS011;33653;52.302;8.134;2022-07-03T17:30:05;1.40;;;1.27;;